createdAt,value
2022-09-20T00:00:01.659Z,9.39
2022-09-20T00:05:02.349Z,9.20
2022-09-20T00:10:03.005Z,9.05
2022-09-20T00:15:05.654Z,8.81
2022-09-20T00:20:06.929Z,8.56
2022-09-20T00:25:09.067Z,8.46
2022-09-20T00:30:13.187Z,8.41
2022-09-20T00:35:13.773Z,8.47
2022-09-20T00:40:16.541Z,8.51
2022-09-20T00:45:22.882Z,8.45
2022-09-20T00:50:33.716Z,8.47
2022-09-20T00:55:36.786Z,8.55
2022-09-20T01:00:39.320Z,8.68
2022-09-20T01:05:41.307Z,8.67
2022-09-20T01:10:42.607Z,8.76
2022-09-20T01:15:46.433Z,8.72
2022-09-20T01:20:49.298Z,8.82
2022-09-20T01:26:23.535Z,8.72
2022-09-20T01:31:29.401Z,8.71
2022-09-20T01:36:39.089Z,8.68
2022-09-20T01:41:45.038Z,8.79
2022-09-20T01:46:51.590Z,8.76
2022-09-20T01:52:17.951Z,8.83
2022-09-20T01:58:04.305Z,8.85
2022-09-20T02:03:32.999Z,8.93
2022-09-20T02:08:56.635Z,8.98
2022-09-20T02:14:24.590Z,8.95
2022-09-20T02:19:40.289Z,8.99
2022-09-20T02:24:47.873Z,9.04
2022-09-20T02:29:59.354Z,9.11
2022-09-20T02:35:24.462Z,9.09
2022-09-20T02:40:44.831Z,9.12
2022-09-20T02:45:52.037Z,9.05
2022-09-20T02:51:03.173Z,9.03
2022-09-20T02:56:12.708Z,9.08
2022-09-20T03:01:27.439Z,9.17
2022-09-20T03:06:38.043Z,9.09
2022-09-20T03:11:47.296Z,8.97
2022-09-20T03:17:06.509Z,8.85
2022-09-20T03:22:19.640Z,8.77
2022-09-20T03:27:30.920Z,8.82
2022-09-20T03:32:43.580Z,8.76
2022-09-20T03:37:56.282Z,8.70
2022-09-20T03:43:04.900Z,8.67
2022-09-20T03:48:37.442Z,8.68
2022-09-20T03:54:13.202Z,8.58
2022-09-20T03:59:26.653Z,8.70
2022-09-20T04:04:33.973Z,8.70
2022-09-20T04:09:56.392Z,8.70
2022-09-20T04:15:08.381Z,8.69
2022-09-20T04:20:21.196Z,8.72
2022-09-20T04:25:30.047Z,8.81
2022-09-20T04:30:37.545Z,8.86
2022-09-20T04:36:19.189Z,8.92
2022-09-20T04:41:43.801Z,8.94
2022-09-20T04:47:29.012Z,8.97
2022-09-20T04:52:58.384Z,8.99
2022-09-20T04:58:33.938Z,9.04
2022-09-20T05:04:04.580Z,9.03
2022-09-20T05:09:30.542Z,9.02
2022-09-20T05:14:48.226Z,9.00
2022-09-20T05:20:08.015Z,9.07
2022-09-20T05:25:51.550Z,9.00
2022-09-20T05:30:58.177Z,8.95
2022-09-20T05:36:09.325Z,9.04
2022-09-20T05:41:19.052Z,9.14
2022-09-20T05:46:36.062Z,9.09
2022-09-20T05:52:01.855Z,8.90
2022-09-20T05:57:17.107Z,8.90
2022-09-20T06:02:33.826Z,8.89
2022-09-20T06:07:53.583Z,8.93
2022-09-20T06:13:00.893Z,8.98
2022-09-20T06:18:15.180Z,9.01
2022-09-20T06:23:16.594Z,8.95
2022-09-20T06:28:19.675Z,9.05
2022-09-20T06:33:24.055Z,9.22
2022-09-20T06:38:55.686Z,9.51
2022-09-20T06:43:59.161Z,9.69
2022-09-20T06:49:01.492Z,10.01
2022-09-20T06:54:02.675Z,10.13
2022-09-20T06:59:03.709Z,10.29
2022-09-20T07:04:06.137Z,10.38
2022-09-20T07:09:07.521Z,10.54
2022-09-20T07:14:08.246Z,10.32
2022-09-20T07:19:10.489Z,10.16
2022-09-20T07:24:11.403Z,10.01
2022-09-20T07:29:12.189Z,9.84
2022-09-20T07:34:14.262Z,9.75
2022-09-20T07:39:14.973Z,9.62
2022-09-20T07:44:25.464Z,9.53
2022-09-20T07:49:29.945Z,9.52
2022-09-20T07:54:30.631Z,9.64
2022-09-20T07:59:31.295Z,9.80
2022-09-20T08:04:33.242Z,9.97
2022-09-20T08:09:33.940Z,10.04
2022-09-20T08:14:34.595Z,9.91
2022-09-20T08:19:39.972Z,9.96
2022-09-20T08:24:40.696Z,10.00
2022-09-20T08:29:41.372Z,9.79
2022-09-20T08:34:43.326Z,9.84
2022-09-20T08:39:59.637Z,9.98
2022-09-20T08:45:03.684Z,10.51
2022-09-20T08:50:09.986Z,10.66
2022-09-20T08:55:17.277Z,10.83
2022-09-20T09:00:20.145Z,11.22
2022-09-20T09:05:44.007Z,11.12
2022-09-20T09:10:51.315Z,10.97
2022-09-20T09:15:57.237Z,11.24
2022-09-20T09:21:00.703Z,11.62
2022-09-20T09:26:04.864Z,11.29
2022-09-20T09:31:23.684Z,11.08
2022-09-20T09:36:26.974Z,11.13
2022-09-20T09:41:35.332Z,11.50
2022-09-20T09:46:37.541Z,11.78
2022-09-20T09:51:42.425Z,12.07
2022-09-20T09:56:57.403Z,11.36
2022-09-20T10:02:13.104Z,10.98
2022-09-20T10:07:22.012Z,10.90
2022-09-20T10:12:39.234Z,11.13
2022-09-20T10:17:52.749Z,11.27
2022-09-20T10:23:39.261Z,11.42
2022-09-20T10:28:48.323Z,12.02
2022-09-20T10:34:01.375Z,12.45
2022-09-20T10:39:10.143Z,12.36
2022-09-20T10:44:23.440Z,12.56
2022-09-20T10:49:32.912Z,12.42
2022-09-20T10:54:49.233Z,12.09
2022-09-20T10:59:58.698Z,12.20
2022-09-20T11:05:19.363Z,12.35
2022-09-20T11:10:25.459Z,13.38
2022-09-20T11:15:33.537Z,13.38
2022-09-20T11:20:44.115Z,13.87
2022-09-20T11:25:51.722Z,14.00
2022-09-20T11:31:01.148Z,13.68
2022-09-20T11:36:04.845Z,13.79
2022-09-20T11:41:12.798Z,14.25
2022-09-20T11:46:16.137Z,13.86
2022-09-20T11:51:48.557Z,13.51
2022-09-20T11:56:53.867Z,13.71
2022-09-20T12:01:59.453Z,13.40
2022-09-20T12:07:08.370Z,12.75
2022-09-20T12:12:21.334Z,12.55
2022-09-20T12:17:59.483Z,12.66
2022-09-20T12:23:33.418Z,13.33
2022-09-20T12:28:37.736Z,13.22
2022-09-20T12:33:57.936Z,13.35
2022-09-20T12:39:06.170Z,13.23
2022-09-20T12:44:25.228Z,13.28
2022-09-20T12:49:58.791Z,13.18
2022-09-20T12:55:03.792Z,13.20
2022-09-20T13:00:34.768Z,13.07
2022-09-20T13:05:38.910Z,13.23
2022-09-20T13:10:43.445Z,13.52
2022-09-20T13:15:52.445Z,13.60
2022-09-20T13:20:53.931Z,14.27
2022-09-20T13:25:58.608Z,14.48
2022-09-20T13:31:25.049Z,14.72
2022-09-20T13:36:28.549Z,14.76
2022-09-20T13:41:32.581Z,14.46
2022-09-20T13:46:34.678Z,14.12
2022-09-20T13:51:35.655Z,14.19
2022-09-20T13:56:36.413Z,14.20
2022-09-20T14:01:39.528Z,14.03
2022-09-20T14:06:40.319Z,12.54
2022-09-20T14:11:41.381Z,11.13
2022-09-20T14:16:46.761Z,9.60
2022-09-20T14:21:48.601Z,9.54
2022-09-20T14:27:06.277Z,9.44
2022-09-20T14:32:18.352Z,9.64
2022-09-20T14:37:25.683Z,9.85
2022-09-20T14:42:32.202Z,10.16
2022-09-20T14:47:40.114Z,10.33
2022-09-20T14:52:43.822Z,10.42
2022-09-20T14:57:46.230Z,10.53
2022-09-20T15:02:48.667Z,10.53
2022-09-20T15:07:49.384Z,10.72
2022-09-20T15:12:50.040Z,10.88
2022-09-20T15:17:52.476Z,11.07
2022-09-20T15:22:53.158Z,11.07
2022-09-20T15:27:53.799Z,11.13
2022-09-20T15:32:58.567Z,11.18
2022-09-20T15:38:01.587Z,11.32
2022-09-20T15:43:02.217Z,11.35
2022-09-20T15:48:04.528Z,11.36
2022-09-20T15:53:05.642Z,11.44
2022-09-20T15:58:06.452Z,11.69
2022-09-20T16:03:08.493Z,11.82
2022-09-20T16:08:09.170Z,12.08
2022-09-20T16:13:09.844Z,12.06
2022-09-20T16:18:29.647Z,11.61
2022-09-20T16:23:30.259Z,11.50
2022-09-20T16:28:30.876Z,11.37
2022-09-20T16:33:33.953Z,11.00
2022-09-20T16:38:34.986Z,10.85
2022-09-20T16:43:37.927Z,10.84
2022-09-20T16:48:40.831Z,10.84
2022-09-20T16:53:41.499Z,10.82
2022-09-20T16:58:43.340Z,11.03
2022-09-20T17:03:46.046Z,11.01
2022-09-20T17:08:48.670Z,10.77
2022-09-20T17:13:51.377Z,10.25
2022-09-20T17:18:58.235Z,9.37
2022-09-20T17:24:00.616Z,9.07
2022-09-20T17:29:03.073Z,8.84
2022-09-20T17:34:07.714Z,8.82
2022-09-20T17:39:10.919Z,8.75
2022-09-20T17:44:12.274Z,8.79
2022-09-20T17:49:15.922Z,8.83
2022-09-20T17:54:17.137Z,8.92
2022-09-20T17:59:19.515Z,9.01
2022-09-20T18:04:24.449Z,8.97
2022-09-20T18:09:27.649Z,8.95
2022-09-20T18:14:31.216Z,9.01
2022-09-20T18:19:34.289Z,9.03
2022-09-20T18:24:35.024Z,9.03
2022-09-20T18:29:37.554Z,9.00
2022-09-20T18:34:40.314Z,9.02
2022-09-20T18:39:41.039Z,9.14
2022-09-20T18:44:43.182Z,9.12
2022-09-20T18:49:45.138Z,9.04
2022-09-20T18:54:46.139Z,8.91
2022-09-20T18:59:54.358Z,8.87
2022-09-20T19:05:18.600Z,8.74
2022-09-20T19:10:28.094Z,8.77
2022-09-20T19:15:48.550Z,8.68
2022-09-20T19:20:59.014Z,8.67
2022-09-20T19:26:10.241Z,8.61
2022-09-20T19:31:21.223Z,8.57
2022-09-20T19:36:24.473Z,8.56
2022-09-20T19:41:39.698Z,8.60
2022-09-20T19:46:52.225Z,8.66
2022-09-20T19:51:55.903Z,8.72
2022-09-20T19:56:59.466Z,8.71
2022-09-20T20:02:00.893Z,8.74
2022-09-20T20:07:08.921Z,8.67
2022-09-20T20:12:15.529Z,8.65
2022-09-20T20:17:33.645Z,8.54
2022-09-20T20:23:06.405Z,8.50
2022-09-20T20:28:07.727Z,8.44
2022-09-20T20:33:08.340Z,8.45
2022-09-20T20:38:11.592Z,8.36
2022-09-20T20:43:12.183Z,8.40
2022-09-20T20:48:12.908Z,8.43
2022-09-20T20:53:14.905Z,8.49
2022-09-20T20:58:15.591Z,8.55
2022-09-20T21:03:16.190Z,8.61
2022-09-20T21:08:18.198Z,8.65
2022-09-20T21:13:18.808Z,8.67
2022-09-20T21:18:19.534Z,8.73
2022-09-20T21:23:21.492Z,8.73
2022-09-20T21:28:22.277Z,8.72
2022-09-20T21:33:23.047Z,8.74
2022-09-20T21:38:25.069Z,8.78
2022-09-20T21:43:26.702Z,8.77
2022-09-20T21:48:28.158Z,8.83
2022-09-20T21:53:30.708Z,8.81
2022-09-20T21:58:31.472Z,8.83
2022-09-20T22:03:36.699Z,8.82
2022-09-20T22:08:40.251Z,8.83
2022-09-20T22:13:42.203Z,8.86
2022-09-20T22:18:44.709Z,8.84
2022-09-20T22:23:50.144Z,8.81
2022-09-20T22:28:51.686Z,8.84
2022-09-20T22:33:54.258Z,8.84
2022-09-20T22:38:56.465Z,8.88
2022-09-20T22:43:57.214Z,8.87
2022-09-20T22:48:57.957Z,8.82
2022-09-20T22:54:00.418Z,8.84
2022-09-20T22:59:04.731Z,8.82
2022-09-20T23:04:08.163Z,8.74
2022-09-20T23:09:12.491Z,8.71
2022-09-20T23:14:15.416Z,8.74
2022-09-20T23:19:16.193Z,8.78
2022-09-20T23:24:18.184Z,8.80
2022-09-20T23:29:18.790Z,8.79
2022-09-20T23:34:19.413Z,8.77
2022-09-20T23:39:21.336Z,8.77
2022-09-20T23:44:22.021Z,8.78
2022-09-20T23:49:22.610Z,8.78
2022-09-20T23:54:24.573Z,8.75
2022-09-20T23:59:25.176Z,8.81
